Happy Valentine's Day! 

Flight Track Log - Related Links

Times and Time Zones

All times are in EDT time to prevent confusion due to time zone crossing. See the EJA583 flight status page for this flight to view local times or setup timezone preferences in your user account.


Time Position Orientation Groundspeed Altitude Reporting Facility
EDT Latitude Longitude Course Direction KTS MPH feet Rate Location/Type
Mon 02:17:58 PM 39.9667 -75.8333 123° Southeast 198 228 1,800  Level Philadelphia TRACON
Mon 02:19:16 PM 39.9333 -75.7667 123° Southeast 203 234 6,000 2,935 Climbing Philadelphia TRACON
Mon 02:20:17 PM 39.8667 -75.7333 159° South 250 288 8,600 1,488 Climbing Philadelphia TRACON
Mon 02:21:17 PM 39.8167 -75.6667 134° Southeast 303 349 9,000 944 Climbing Philadelphia TRACON
Mon 02:23:34 PM 39.6739 -75.5106 140° Southeast 304 350 11,700 1,036 Climbing Washington Center
Mon 02:24:34 PM 39.6008 -75.4300 140° Southeast 320 368 12,400 1,736 Climbing Washington Center
Mon 02:25:35 PM 39.5278 -75.3547 142° Southeast 335 386 15,200 1,770 Climbing Washington Center
Mon 02:26:36 PM 39.4383 -75.3389 172° South 319 367 16,000 400 Climbing Washington Center
Mon 02:27:35 PM 39.3361 -75.3556 187° South 329 379 16,000  Level Washington Center
Mon 02:28:36 PM 39.2342 -75.3664 185° South 352 405 16,000  Level Washington Center
Mon 02:29:34 PM 39.1381 -75.3828 188° South 366 421 16,000  Level Washington Center
Mon 02:30:35 PM 39.0381 -75.4019 188° South 358 412 16,000  Level Washington Center
Mon 02:31:36 PM 38.9361 -75.4208 188° South 364 419 16,000 958 Level Washington Center
Mon 02:32:34 PM 38.8361 -75.4425 190° South 374 430 17,900 2,118 Climbing Washington Center
Mon 02:33:35 PM 38.7464 -75.4533 185° South 353 406 20,200 1,983 Climbing Washington Center
Mon 02:34:35 PM 38.6608 -75.4667 187° South 337 388 21,900 1,613 Climbing Washington Center
Mon 02:35:34 PM 38.5714 -75.4803 187° South 324 373 23,400 1,339 Climbing Washington Center
Mon 02:36:36 PM 38.4775 -75.4908 185° South 329 379 24,600 1,230 Climbing Washington Center
Mon 02:37:36 PM 38.3817 -75.5069 188° South 341 392 25,900 1,322 Climbing Washington Center
Mon 02:38:34 PM 38.2858 -75.5361 193° South 354 407 27,200 1,220 Climbing Washington Center
Mon 02:39:34 PM 38.1878 -75.5600 191° South 354 407 28,300 1,033 Climbing Washington Center
Mon 02:40:36 PM 38.0897 -75.5892 193° South 359 413 29,300 950 Climbing Washington Center
Mon 02:41:34 PM 37.9897 -75.6181 193° South 364 419 30,200 900 Climbing Washington Center
Mon 02:42:36 PM 37.9000 -75.6733 206° Southwest 364 419 31,100 950 Climbing Washington Center
Mon 02:43:34 PM 37.8247 -75.7600 222° Southwest 358 412 32,100 1,119 Climbing Washington Center
Mon 02:44:34 PM 37.7494 -75.8467 222° Southwest 363 418 33,300 1,200 Climbing Washington Center
Mon 02:45:34 PM 37.6783 -75.9328 224° Southwest 363 418 34,500 1,190 Climbing Washington Center
Mon 02:46:35 PM 37.6072 -76.0192 224° Southwest 363 418 35,700 1,279 Climbing Washington Center
Mon 02:47:36 PM 37.5567 -76.1236 239° Southwest 358 412 37,100 1,438 Climbing Washington Center
Mon 02:48:36 PM 37.5000 -76.2147 232° Southwest 353 406 38,600 1,311 Climbing Washington Center
Mon 02:49:35 PM 37.4244 -76.2900 218° Southwest 342 394 39,700 700 Climbing Washington Center
Mon 02:50:36 PM 37.3489 -76.3703 220° Southwest 347 399 40,000 99 Climbing Washington Center
Mon 02:52:00 PM 37.2365 -76.4831 247° West  Level Estimated
Mon 02:52:36 PM 37.1786 -76.5406 247° West 392 451 40,000  Level Washington Center
Mon 02:53:34 PM 37.0925 -76.6281 219° Southwest 405 466 40,000  Level Washington Center
Mon 02:54:35 PM 37.0061 -76.7156 219° Southwest 405 466 40,000  Level Washington Center
Mon 02:55:36 PM 36.9197 -76.8000 218° Southwest 398 458 40,000  Level Washington Center
Mon 02:56:36 PM 36.8356 -76.8842 219° Southwest 398 458 40,000  Level Washington Center
Mon 02:57:34 PM 36.7492 -76.9683 218° Southwest 398 458 40,000  Level Washington Center
Mon 02:58:35 PM 36.6667 -77.0522 219° Southwest 398 458 40,000  Level Washington Center
Mon 02:59:36 PM 36.5800 -77.1361 218° Southwest 398 458 40,000  Level Washington Center
Mon 03:00:36 PM 36.4933 -77.2222 219° Southwest 398 458 40,000  Level Washington Center
Mon 03:01:34 PM 36.4047 -77.3056 217° Southwest 398 458 40,000  Level Washington Center
Mon 03:02:34 PM 36.3200 -77.3889 218° Southwest 403 464 40,000  Level Washington Center
Mon 03:03:34 PM 36.2436 -77.4669 220° Southwest 396 456 40,000  Level Washington Center
Mon 03:04:35 PM 36.1589 -77.5497 218° Southwest 396 456 40,000  Level Washington Center
Mon 03:05:35 PM 36.0614 -77.6425 218° Southwest 402 463 40,000  Level Washington Center
Mon 03:06:36 PM 35.9742 -77.7275 218° Southwest 402 463 40,000  Level Washington Center
Mon 03:07:34 PM 35.8850 -77.8122 218° Southwest 402 463 40,000  Level Washington Center
Mon 03:08:35 PM 35.7958 -77.8942 217° Southwest 402 463 40,000  Level Washington Center
Mon 03:09:36 PM 35.7067 -77.9811 218° Southwest 402 463 40,000  Level Washington Center
Mon 03:10:35 PM 35.6153 -78.0653 217° Southwest 402 463 40,000  Level Washington Center
Mon 03:11:36 PM 35.5278 -78.1467 217° Southwest 402 463 40,000  Level Washington Center
Mon 03:12:34 PM 35.4386 -78.2281 217° Southwest 402 463 40,000  Level Washington Center
Mon 03:13:34 PM 35.3469 -78.3142 217° Southwest 402 463 40,000  Level Washington Center
Mon 03:14:35 PM 35.2572 -78.4003 218° Southwest 402 463 40,000  Level Washington Center
Mon 03:15:36 PM 35.1697 -78.4861 219° Southwest 402 463 40,000  Level Washington Center
Mon 03:16:34 PM 35.0800 -78.5692 217° Southwest 402 463 40,000  Level Washington Center
Mon 03:18:43 PM 34.8967 -78.7392 217° Southwest 411 473 40,000  Level Jacksonville Center
Mon 03:19:43 PM 34.8094 -78.8192 217° Southwest 411 473 40,000  Level Jacksonville Center
Mon 03:20:43 PM 34.7244 -78.8992 218° Southwest 406 467 40,000  Level Jacksonville Center
Mon 03:21:43 PM 34.6353 -78.9789 216° Southwest 406 467 40,000  Level Jacksonville Center
Mon 03:22:43 PM 34.5458 -79.0611 217° Southwest 406 467 40,000  Level Jacksonville Center
Mon 03:23:43 PM 34.4589 -79.1481 220° Southwest 406 467 40,000  Level Jacksonville Center
Mon 03:24:43 PM 34.3694 -79.2300 217° Southwest 406 467 40,000  Level Jacksonville Center
Mon 03:25:43 PM 34.2678 -79.3222 217° Southwest 414 476 40,000  Level Jacksonville Center
Mon 03:26:43 PM 34.1761 -79.4011 215° Southwest 414 476 40,000 -500 Level Jacksonville Center
Mon 03:27:43 PM 34.0947 -79.4772 218° Southwest 401 461 39,000 -1,050 Descending Jacksonville Center
Mon 03:28:43 PM 34.0072 -79.5558 217° Southwest 401 461 37,900 -1,150 Descending Jacksonville Center
Mon 03:29:43 PM 33.9194 -79.6342 217° Southwest 401 461 36,700 -1,200 Descending Jacksonville Center
Mon 03:30:43 PM 33.8317 -79.7125 217° Southwest 401 461 35,500 -1,200 Descending Jacksonville Center
Mon 03:31:43 PM 33.7442 -79.7931 217° Southwest 401 461 34,300 -1,250 Descending Jacksonville Center
Mon 03:32:43 PM 33.6542 -79.8711 216° Southwest 407 468 33,000 -1,300 Descending Jacksonville Center
Mon 03:33:43 PM 33.5600 -79.9539 216° Southwest 407 468 31,700 -1,300 Descending Jacksonville Center
Mon 03:34:43 PM 33.4681 -80.0367 217° Southwest 407 468 30,400 -1,400 Descending Jacksonville Center
Mon 03:35:43 PM 33.3781 -80.1192 217° Southwest 407 468 28,900 -1,500 Descending Jacksonville Center
Mon 03:36:43 PM 33.2922 -80.1939 216° Southwest 417 480 27,400 -1,500 Descending Jacksonville Center
Mon 03:37:43 PM 33.2019 -80.2786 218° Southwest 422 486 25,900 -1,450 Descending Jacksonville Center
Mon 03:38:43 PM 33.0994 -80.3583 213° Southwest 433 498 24,500 -1,550 Descending Jacksonville Center
Mon 03:39:43 PM 33.0069 -80.4428 217° Southwest 426 490 22,800 -1,750 Descending Jacksonville Center
Mon 03:40:43 PM 32.9167 -80.5219 216° Southwest 420 483 21,000 -2,200 Descending Jacksonville Center
Mon 03:41:43 PM 32.8306 -80.5958 216° Southwest 408 470 18,400 -2,650 Descending Jacksonville Center
Mon 03:42:43 PM 32.7483 -80.6697 217° Southwest 394 453 15,700 -2,600 Descending Jacksonville Center
Mon 03:43:43 PM 32.6681 -80.7383 216° Southwest 375 432 13,200 -2,350 Descending Jacksonville Center
Mon 03:44:43 PM 32.5919 -80.8042 216° Southwest 358 412 11,000 -1,550 Descending Jacksonville Center
Mon 03:45:43 PM 32.5178 -80.8700 217° Southwest 351 404 10,100 -950 Descending Jacksonville Center
Mon 03:46:43 PM 32.4603 -80.9206 217° Southwest 278 320 9,100 -1,300 Descending Jacksonville Center
Mon 03:47:43 PM 32.3792 -80.9517 198° South 278 320 7,500 -1,800 Descending Jacksonville Center
Mon 03:48:43 PM 32.3189 -80.9728 196° South 267 307 5,500 -2,100 Descending Jacksonville Center
Mon 03:49:43 PM 32.2525 -80.9986 198° South 250 288 3,300 -1,950 Descending Jacksonville Center
Mon 03:50:43 PM 32.1947 -81.0464 215° Southwest 240 276 1,600 -800 Descending Jacksonville Center
Mon 03:51:43 PM 32.1494 -81.0817 213° Southwest 222 255 1,700 -300 Climbing Jacksonville Center
Mon 03:52:43 PM 32.1250 -81.1239 236° Southwest 183 211 1,000 -550 Descending Jacksonville Center
Mon 03:53:43 PM 32.1275 -81.1606 275° West 131 151 600 -350 Descending Jacksonville Center
Mon 03:54:43 PM 32.1239 -81.2025 264° West 125 144 300 11,700 Descending Jacksonville Center
Mon 03:55:43 PM 32.1244 -81.2442 271° West 125 144 24,000 23,700 Climbing Jacksonville Center
Mon 03:57:00 PM 32.1167 -81.2000 North  Level FlightAware Approximate

Login

Don't have an account? Register now (free) for customized features, flight alerts, and more!